sensor_id;sensor_type;location;lat;lon;timestamp;P1;durP1;ratioP1;P2;durP2;ratioP2
76725;SDS011;65651;53.154;17.916;2023-11-21T00:00:53;110.30;;;28.70;;
76725;SDS011;65651;53.154;17.916;2023-11-21T00:03:37;104.20;;;22.30;;
76725;SDS011;65651;53.154;17.916;2023-11-21T00:06:05;98.30;;;24.20;;
76725;SDS011;65651;53.154;17.916;2023-11-21T00:08:36;103.40;;;25.10;;
76725;SDS011;65651;53.154;17.916;2023-11-21T00:11:04;109.70;;;27.00;;
76725;SDS011;65651;53.154;17.916;2023-11-21T00:13:32;113.70;;;27.20;;
76725;SDS011;65651;53.154;17.916;2023-11-21T00:16:02;97.30;;;24.30;;
76725;SDS011;65651;53.154;17.916;2023-11-21T00:18:31;103.80;;;24.50;;
76725;SDS011;65651;53.154;17.916;2023-11-21T00:20:58;94.50;;;25.40;;
76725;SDS011;65651;53.154;17.916;2023-11-21T00:23:26;102.80;;;25.40;;
76725;SDS011;65651;53.154;17.916;2023-11-21T00:25:53;97.80;;;24.90;;
76725;SDS011;65651;53.154;17.916;2023-11-21T00:28:20;99.50;;;25.40;;
76725;SDS011;65651;53.154;17.916;2023-11-21T00:30:49;85.50;;;20.70;;
76725;SDS011;65651;53.154;17.916;2023-11-21T00:33:16;104.30;;;24.40;;
76725;SDS011;65651;53.154;17.916;2023-11-21T00:35:44;89.30;;;22.50;;
76725;SDS011;65651;53.154;17.916;2023-11-21T00:38:11;104.60;;;23.20;;
76725;SDS011;65651;53.154;17.916;2023-11-21T00:40:38;93.10;;;23.90;;
76725;SDS011;65651;53.154;17.916;2023-11-21T00:43:06;86.30;;;22.00;;
76725;SDS011;65651;53.154;17.916;2023-11-21T00:45:33;93.50;;;23.10;;
76725;SDS011;65651;53.154;17.916;2023-11-21T00:48:03;98.60;;;22.90;;
76725;SDS011;65651;53.154;17.916;2023-11-21T00:50:31;112.00;;;25.80;;
76725;SDS011;65651;53.154;17.916;2023-11-21T00:52:59;101.00;;;24.80;;
76725;SDS011;65651;53.154;17.916;2023-11-21T00:55:27;97.40;;;24.50;;
76725;SDS011;65651;53.154;17.916;2023-11-21T00:57:55;106.10;;;25.80;;
76725;SDS011;65651;53.154;17.916;2023-11-21T01:00:22;106.10;;;26.10;;
76725;SDS011;65651;53.154;17.916;2023-11-21T01:02:50;103.70;;;26.40;;
76725;SDS011;65651;53.154;17.916;2023-11-21T01:05:18;105.50;;;26.90;;
76725;SDS011;65651;53.154;17.916;2023-11-21T01:07:46;101.60;;;26.90;;
76725;SDS011;65651;53.154;17.916;2023-11-21T01:10:16;106.40;;;25.40;;
76725;SDS011;65651;53.154;17.916;2023-11-21T01:12:44;97.00;;;25.00;;
76725;SDS011;65651;53.154;17.916;2023-11-21T01:15:12;105.60;;;27.60;;
76725;SDS011;65651;53.154;17.916;2023-11-21T01:17:40;92.90;;;23.50;;
76725;SDS011;65651;53.154;17.916;2023-11-21T01:20:07;91.90;;;20.30;;
76725;SDS011;65651;53.154;17.916;2023-11-21T01:22:40;103.70;;;24.60;;
76725;SDS011;65651;53.154;17.916;2023-11-21T01:25:08;94.40;;;22.40;;
76725;SDS011;65651;53.154;17.916;2023-11-21T01:27:36;109.70;;;27.10;;
76725;SDS011;65651;53.154;17.916;2023-11-21T01:30:04;111.60;;;27.10;;
76725;SDS011;65651;53.154;17.916;2023-11-21T01:32:34;106.30;;;27.50;;
76725;SDS011;65651;53.154;17.916;2023-11-21T01:35:01;119.60;;;26.00;;
76725;SDS011;65651;53.154;17.916;2023-11-21T01:37:28;115.30;;;27.90;;
76725;SDS011;65651;53.154;17.916;2023-11-21T01:39:58;122.60;;;26.20;;
76725;SDS011;65651;53.154;17.916;2023-11-21T01:42:28;118.30;;;26.40;;
76725;SDS011;65651;53.154;17.916;2023-11-21T01:44:56;97.60;;;21.30;;
76725;SDS011;65651;53.154;17.916;2023-11-21T01:47:23;106.70;;;21.60;;
76725;SDS011;65651;53.154;17.916;2023-11-21T01:49:51;120.90;;;27.20;;
76725;SDS011;65651;53.154;17.916;2023-11-21T01:52:18;128.50;;;29.80;;
76725;SDS011;65651;53.154;17.916;2023-11-21T01:54:46;129.90;;;28.10;;
76725;SDS011;65651;53.154;17.916;2023-11-21T01:57:14;115.10;;;24.20;;
76725;SDS011;65651;53.154;17.916;2023-11-21T01:59:42;98.90;;;21.80;;
76725;SDS011;65651;53.154;17.916;2023-11-21T02:02:12;134.20;;;27.40;;
76725;SDS011;65651;53.154;17.916;2023-11-21T02:04:40;111.80;;;23.60;;
76725;SDS011;65651;53.154;17.916;2023-11-21T02:07:08;99.40;;;22.20;;
76725;SDS011;65651;53.154;17.916;2023-11-21T02:09:36;115.30;;;27.40;;
76725;SDS011;65651;53.154;17.916;2023-11-21T02:12:10;131.80;;;27.20;;
76725;SDS011;65651;53.154;17.916;2023-11-21T02:14:38;123.60;;;26.30;;
76725;SDS011;65651;53.154;17.916;2023-11-21T02:17:05;123.10;;;23.90;;
76725;SDS011;65651;53.154;17.916;2023-11-21T02:19:33;134.90;;;27.30;;
76725;SDS011;65651;53.154;17.916;2023-11-21T02:22:01;131.00;;;29.10;;
76725;SDS011;65651;53.154;17.916;2023-11-21T02:24:33;145.00;;;30.90;;
76725;SDS011;65651;53.154;17.916;2023-11-21T02:27:02;138.90;;;30.90;;
76725;SDS011;65651;53.154;17.916;2023-11-21T02:29:30;143.00;;;34.10;;
76725;SDS011;65651;53.154;17.916;2023-11-21T02:31:57;137.60;;;32.00;;
76725;SDS011;65651;53.154;17.916;2023-11-21T02:34:25;137.10;;;28.80;;
76725;SDS011;65651;53.154;17.916;2023-11-21T02:36:52;141.60;;;35.00;;
76725;SDS011;65651;53.154;17.916;2023-11-21T02:39:20;141.90;;;34.50;;
76725;SDS011;65651;53.154;17.916;2023-11-21T02:41:50;166.20;;;35.00;;
76725;SDS011;65651;53.154;17.916;2023-11-21T02:44:17;139.00;;;32.90;;
76725;SDS011;65651;53.154;17.916;2023-11-21T02:46:45;147.30;;;36.70;;
76725;SDS011;65651;53.154;17.916;2023-11-21T02:49:13;128.00;;;28.20;;
76725;SDS011;65651;53.154;17.916;2023-11-21T02:51:41;152.80;;;31.30;;
76725;SDS011;65651;53.154;17.916;2023-11-21T02:54:08;142.40;;;34.30;;
76725;SDS011;65651;53.154;17.916;2023-11-21T02:56:36;159.10;;;35.90;;
76725;SDS011;65651;53.154;17.916;2023-11-21T02:59:04;156.80;;;36.00;;
76725;SDS011;65651;53.154;17.916;2023-11-21T03:01:31;147.70;;;32.80;;
76725;SDS011;65651;53.154;17.916;2023-11-21T03:03:58;155.40;;;36.60;;
76725;SDS011;65651;53.154;17.916;2023-11-21T03:06:29;160.50;;;35.40;;
76725;SDS011;65651;53.154;17.916;2023-11-21T03:08:57;168.50;;;37.80;;
76725;SDS011;65651;53.154;17.916;2023-11-21T03:11:24;160.50;;;33.90;;
76725;SDS011;65651;53.154;17.916;2023-11-21T03:13:52;160.60;;;37.20;;
76725;SDS011;65651;53.154;17.916;2023-11-21T03:16:19;158.10;;;33.40;;
76725;SDS011;65651;53.154;17.916;2023-11-21T03:18:47;154.00;;;36.50;;
76725;SDS011;65651;53.154;17.916;2023-11-21T03:21:14;160.10;;;36.10;;
76725;SDS011;65651;53.154;17.916;2023-11-21T03:23:42;171.50;;;38.50;;
76725;SDS011;65651;53.154;17.916;2023-11-21T03:26:13;168.00;;;39.40;;
76725;SDS011;65651;53.154;17.916;2023-11-21T03:28:40;166.40;;;34.80;;
76725;SDS011;65651;53.154;17.916;2023-11-21T03:31:08;161.90;;;33.80;;
76725;SDS011;65651;53.154;17.916;2023-11-21T03:33:38;163.20;;;34.40;;
76725;SDS011;65651;53.154;17.916;2023-11-21T03:36:07;176.90;;;38.50;;
76725;SDS011;65651;53.154;17.916;2023-11-21T03:38:35;160.10;;;36.70;;
76725;SDS011;65651;53.154;17.916;2023-11-21T03:41:03;159.10;;;40.80;;
76725;SDS011;65651;53.154;17.916;2023-11-21T03:43:31;166.20;;;38.70;;
76725;SDS011;65651;53.154;17.916;2023-11-21T03:45:58;169.00;;;38.90;;
76725;SDS011;65651;53.154;17.916;2023-11-21T03:48:26;165.30;;;32.50;;
76725;SDS011;65651;53.154;17.916;2023-11-21T03:50:53;132.50;;;25.70;;
76725;SDS011;65651;53.154;17.916;2023-11-21T03:53:21;159.60;;;38.90;;
76725;SDS011;65651;53.154;17.916;2023-11-21T03:55:48;121.10;;;25.50;;
76725;SDS011;65651;53.154;17.916;2023-11-21T03:58:16;171.50;;;36.80;;
76725;SDS011;65651;53.154;17.916;2023-11-21T04:00:44;122.60;;;25.40;;
76725;SDS011;65651;53.154;17.916;2023-11-21T04:03:12;180.20;;;38.20;;
76725;SDS011;65651;53.154;17.916;2023-11-21T04:05:40;189.20;;;39.40;;
76725;SDS011;65651;53.154;17.916;2023-11-21T04:08:08;185.00;;;39.20;;
76725;SDS011;65651;53.154;17.916;2023-11-21T04:10:35;186.30;;;40.40;;
76725;SDS011;65651;53.154;17.916;2023-11-21T04:13:03;160.10;;;29.90;;
76725;SDS011;65651;53.154;17.916;2023-11-21T04:15:32;182.20;;;38.60;;
76725;SDS011;65651;53.154;17.916;2023-11-21T04:18:00;179.90;;;38.20;;
76725;SDS011;65651;53.154;17.916;2023-11-21T04:20:27;184.90;;;41.20;;
76725;SDS011;65651;53.154;17.916;2023-11-21T04:22:54;190.20;;;39.90;;
76725;SDS011;65651;53.154;17.916;2023-11-21T04:25:21;177.40;;;36.30;;
76725;SDS011;65651;53.154;17.916;2023-11-21T04:27:50;185.10;;;38.10;;
76725;SDS011;65651;53.154;17.916;2023-11-21T04:30:17;177.20;;;39.40;;
76725;SDS011;65651;53.154;17.916;2023-11-21T04:32:45;167.00;;;39.40;;
76725;SDS011;65651;53.154;17.916;2023-11-21T04:35:12;182.10;;;39.60;;
76725;SDS011;65651;53.154;17.916;2023-11-21T04:37:39;144.60;;;33.20;;
76725;SDS011;65651;53.154;17.916;2023-11-21T04:40:07;168.60;;;37.80;;
76725;SDS011;65651;53.154;17.916;2023-11-21T04:42:36;146.70;;;31.20;;
76725;SDS011;65651;53.154;17.916;2023-11-21T04:45:07;182.50;;;36.20;;
76725;SDS011;65651;53.154;17.916;2023-11-21T04:47:38;158.60;;;35.70;;
76725;SDS011;65651;53.154;17.916;2023-11-21T04:50:08;158.10;;;32.80;;
76725;SDS011;65651;53.154;17.916;2023-11-21T04:52:36;149.90;;;36.50;;
76725;SDS011;65651;53.154;17.916;2023-11-21T04:55:04;171.70;;;32.40;;
76725;SDS011;65651;53.154;17.916;2023-11-21T04:57:33;181.20;;;37.40;;
76725;SDS011;65651;53.154;17.916;2023-11-21T05:00:01;160.40;;;35.30;;
76725;SDS011;65651;53.154;17.916;2023-11-21T05:02:28;159.20;;;33.10;;
76725;SDS011;65651;53.154;17.916;2023-11-21T05:04:56;160.00;;;35.40;;
76725;SDS011;65651;53.154;17.916;2023-11-21T05:07:23;157.90;;;35.50;;
76725;SDS011;65651;53.154;17.916;2023-11-21T05:09:50;177.30;;;35.30;;
76725;SDS011;65651;53.154;17.916;2023-11-21T05:12:18;162.40;;;35.40;;
76725;SDS011;65651;53.154;17.916;2023-11-21T05:14:45;154.20;;;33.50;;
76725;SDS011;65651;53.154;17.916;2023-11-21T05:17:13;170.90;;;35.10;;
76725;SDS011;65651;53.154;17.916;2023-11-21T05:19:41;159.10;;;34.20;;
76725;SDS011;65651;53.154;17.916;2023-11-21T05:22:08;158.50;;;35.90;;
76725;SDS011;65651;53.154;17.916;2023-11-21T05:24:38;165.50;;;31.60;;
76725;SDS011;65651;53.154;17.916;2023-11-21T05:27:08;160.20;;;34.90;;
76725;SDS011;65651;53.154;17.916;2023-11-21T05:29:37;125.80;;;35.50;;
76725;SDS011;65651;53.154;17.916;2023-11-21T05:32:08;143.70;;;34.60;;
76725;SDS011;65651;53.154;17.916;2023-11-21T05:34:36;150.40;;;32.60;;
76725;SDS011;65651;53.154;17.916;2023-11-21T05:37:03;163.40;;;35.70;;
76725;SDS011;65651;53.154;17.916;2023-11-21T05:39:32;165.50;;;36.40;;
76725;SDS011;65651;53.154;17.916;2023-11-21T05:41:59;134.90;;;29.10;;
76725;SDS011;65651;53.154;17.916;2023-11-21T05:44:27;150.10;;;32.80;;
76725;SDS011;65651;53.154;17.916;2023-11-21T05:46:54;155.30;;;35.40;;
76725;SDS011;65651;53.154;17.916;2023-11-21T05:49:22;158.90;;;36.30;;
76725;SDS011;65651;53.154;17.916;2023-11-21T05:51:49;160.40;;;37.80;;
76725;SDS011;65651;53.154;17.916;2023-11-21T05:54:16;161.70;;;35.90;;
76725;SDS011;65651;53.154;17.916;2023-11-21T05:56:43;149.80;;;36.10;;
76725;SDS011;65651;53.154;17.916;2023-11-21T05:59:11;159.20;;;36.40;;
76725;SDS011;65651;53.154;17.916;2023-11-21T06:01:38;165.30;;;35.50;;
76725;SDS011;65651;53.154;17.916;2023-11-21T06:04:06;165.80;;;32.90;;
76725;SDS011;65651;53.154;17.916;2023-11-21T06:06:35;170.70;;;36.90;;
76725;SDS011;65651;53.154;17.916;2023-11-21T06:09:03;165.70;;;35.80;;
76725;SDS011;65651;53.154;17.916;2023-11-21T06:11:30;131.80;;;25.00;;
76725;SDS011;65651;53.154;17.916;2023-11-21T06:13:57;152.10;;;30.10;;
76725;SDS011;65651;53.154;17.916;2023-11-21T06:16:25;143.30;;;34.80;;
76725;SDS011;65651;53.154;17.916;2023-11-21T06:18:52;151.80;;;32.10;;
76725;SDS011;65651;53.154;17.916;2023-11-21T06:21:20;158.60;;;33.30;;
76725;SDS011;65651;53.154;17.916;2023-11-21T06:23:47;159.90;;;34.80;;
76725;SDS011;65651;53.154;17.916;2023-11-21T06:26:15;152.50;;;35.10;;
76725;SDS011;65651;53.154;17.916;2023-11-21T06:28:42;163.20;;;35.40;;
76725;SDS011;65651;53.154;17.916;2023-11-21T06:31:09;154.30;;;34.80;;
76725;SDS011;65651;53.154;17.916;2023-11-21T06:33:39;144.00;;;33.80;;
76725;SDS011;65651;53.154;17.916;2023-11-21T06:36:07;137.50;;;29.60;;
76725;SDS011;65651;53.154;17.916;2023-11-21T06:38:37;146.40;;;30.00;;
76725;SDS011;65651;53.154;17.916;2023-11-21T06:41:05;148.20;;;34.10;;
76725;SDS011;65651;53.154;17.916;2023-11-21T06:43:34;167.40;;;33.00;;
76725;SDS011;65651;53.154;17.916;2023-11-21T06:46:01;149.10;;;32.80;;
76725;SDS011;65651;53.154;17.916;2023-11-21T06:48:29;147.30;;;31.40;;
76725;SDS011;65651;53.154;17.916;2023-11-21T06:50:56;131.20;;;28.90;;
76725;SDS011;65651;53.154;17.916;2023-11-21T06:53:24;144.40;;;32.20;;
76725;SDS011;65651;53.154;17.916;2023-11-21T06:55:51;137.00;;;31.10;;
76725;SDS011;65651;53.154;17.916;2023-11-21T06:58:19;126.90;;;31.10;;
76725;SDS011;65651;53.154;17.916;2023-11-21T07:00:46;133.30;;;28.70;;
76725;SDS011;65651;53.154;17.916;2023-11-21T07:03:17;138.00;;;28.50;;
76725;SDS011;65651;53.154;17.916;2023-11-21T07:05:46;127.20;;;26.90;;
76725;SDS011;65651;53.154;17.916;2023-11-21T07:08:15;112.90;;;29.20;;
76725;SDS011;65651;53.154;17.916;2023-11-21T07:10:42;119.40;;;29.90;;
76725;SDS011;65651;53.154;17.916;2023-11-21T07:13:09;119.80;;;27.70;;
76725;SDS011;65651;53.154;17.916;2023-11-21T07:15:39;119.00;;;26.80;;
76725;SDS011;65651;53.154;17.916;2023-11-21T07:18:07;119.90;;;26.10;;
76725;SDS011;65651;53.154;17.916;2023-11-21T07:20:35;112.80;;;25.80;;
76725;SDS011;65651;53.154;17.916;2023-11-21T07:23:02;102.40;;;22.10;;
76725;SDS011;65651;53.154;17.916;2023-11-21T07:25:31;116.20;;;25.60;;
76725;SDS011;65651;53.154;17.916;2023-11-21T07:28:00;93.90;;;24.80;;
76725;SDS011;65651;53.154;17.916;2023-11-21T07:30:28;120.40;;;25.40;;
76725;SDS011;65651;53.154;17.916;2023-11-21T07:32:58;104.00;;;24.00;;
76725;SDS011;65651;53.154;17.916;2023-11-21T07:35:25;84.40;;;22.90;;
76725;SDS011;65651;53.154;17.916;2023-11-21T07:37:53;100.70;;;23.40;;
76725;SDS011;65651;53.154;17.916;2023-11-21T07:40:21;103.40;;;23.60;;
76725;SDS011;65651;53.154;17.916;2023-11-21T07:42:49;103.00;;;22.40;;
76725;SDS011;65651;53.154;17.916;2023-11-21T07:45:19;84.20;;;22.50;;
76725;SDS011;65651;53.154;17.916;2023-11-21T07:47:47;74.70;;;23.20;;
76725;SDS011;65651;53.154;17.916;2023-11-21T07:50:14;80.10;;;20.80;;
76725;SDS011;65651;53.154;17.916;2023-11-21T07:52:42;103.90;;;23.60;;
76725;SDS011;65651;53.154;17.916;2023-11-21T07:55:09;86.30;;;22.60;;
76725;SDS011;65651;53.154;17.916;2023-11-21T07:57:37;92.70;;;23.00;;
76725;SDS011;65651;53.154;17.916;2023-11-21T08:00:05;95.00;;;22.90;;
76725;SDS011;65651;53.154;17.916;2023-11-21T08:02:40;86.90;;;21.10;;
76725;SDS011;65651;53.154;17.916;2023-11-21T08:05:13;77.90;;;22.30;;
76725;SDS011;65651;53.154;17.916;2023-11-21T08:07:40;55.60;;;19.40;;
76725;SDS011;65651;53.154;17.916;2023-11-21T08:10:08;78.60;;;20.40;;
76725;SDS011;65651;53.154;17.916;2023-11-21T08:12:37;67.50;;;20.80;;
76725;SDS011;65651;53.154;17.916;2023-11-21T08:15:05;80.50;;;20.10;;
76725;SDS011;65651;53.154;17.916;2023-11-21T08:17:36;85.90;;;20.40;;
76725;SDS011;65651;53.154;17.916;2023-11-21T08:20:04;88.90;;;20.60;;
76725;SDS011;65651;53.154;17.916;2023-11-21T08:22:33;66.40;;;20.50;;
76725;SDS011;65651;53.154;17.916;2023-11-21T08:25:00;72.00;;;19.70;;
76725;SDS011;65651;53.154;17.916;2023-11-21T08:27:30;74.10;;;21.10;;
76725;SDS011;65651;53.154;17.916;2023-11-21T08:29:57;76.80;;;20.70;;
76725;SDS011;65651;53.154;17.916;2023-11-21T08:32:25;80.30;;;18.90;;
76725;SDS011;65651;53.154;17.916;2023-11-21T08:34:53;63.10;;;20.60;;
76725;SDS011;65651;53.154;17.916;2023-11-21T08:37:20;68.60;;;19.70;;
76725;SDS011;65651;53.154;17.916;2023-11-21T08:39:47;65.40;;;18.70;;
76725;SDS011;65651;53.154;17.916;2023-11-21T08:42:19;77.10;;;20.40;;
76725;SDS011;65651;53.154;17.916;2023-11-21T08:44:47;57.70;;;19.00;;
76725;SDS011;65651;53.154;17.916;2023-11-21T08:47:14;61.30;;;18.50;;
76725;SDS011;65651;53.154;17.916;2023-11-21T08:49:41;71.50;;;20.90;;
76725;SDS011;65651;53.154;17.916;2023-11-21T08:52:09;68.40;;;20.30;;
76725;SDS011;65651;53.154;17.916;2023-11-21T08:54:36;71.90;;;20.50;;
76725;SDS011;65651;53.154;17.916;2023-11-21T08:57:04;73.80;;;18.20;;
76725;SDS011;65651;53.154;17.916;2023-11-21T08:59:32;50.80;;;17.70;;
76725;SDS011;65651;53.154;17.916;2023-11-21T09:02:00;58.50;;;18.50;;
76725;SDS011;65651;53.154;17.916;2023-11-21T09:04:27;56.50;;;18.80;;
76725;SDS011;65651;53.154;17.916;2023-11-21T09:06:54;73.60;;;20.30;;
76725;SDS011;65651;53.154;17.916;2023-11-21T09:09:22;69.20;;;18.40;;
76725;SDS011;65651;53.154;17.916;2023-11-21T09:11:51;63.70;;;20.10;;
76725;SDS011;65651;53.154;17.916;2023-11-21T09:14:18;60.80;;;18.80;;
76725;SDS011;65651;53.154;17.916;2023-11-21T09:16:46;58.00;;;18.80;;
76725;SDS011;65651;53.154;17.916;2023-11-21T09:19:13;75.80;;;19.80;;
76725;SDS011;65651;53.154;17.916;2023-11-21T09:21:41;72.40;;;19.80;;
76725;SDS011;65651;53.154;17.916;2023-11-21T09:24:09;69.60;;;20.00;;
76725;SDS011;65651;53.154;17.916;2023-11-21T09:26:36;74.60;;;19.30;;
76725;SDS011;65651;53.154;17.916;2023-11-21T09:29:04;59.50;;;19.80;;
76725;SDS011;65651;53.154;17.916;2023-11-21T09:31:32;75.80;;;19.10;;
76725;SDS011;65651;53.154;17.916;2023-11-21T09:34:00;66.70;;;19.40;;
76725;SDS011;65651;53.154;17.916;2023-11-21T09:36:29;70.20;;;19.20;;
76725;SDS011;65651;53.154;17.916;2023-11-21T09:38:57;82.60;;;21.90;;
76725;SDS011;65651;53.154;17.916;2023-11-21T09:41:33;58.80;;;19.90;;
76725;SDS011;65651;53.154;17.916;2023-11-21T09:44:08;79.40;;;21.60;;
76725;SDS011;65651;53.154;17.916;2023-11-21T09:46:40;86.90;;;21.80;;
76725;SDS011;65651;53.154;17.916;2023-11-21T09:49:09;72.80;;;22.60;;
76725;SDS011;65651;53.154;17.916;2023-11-21T09:51:42;68.20;;;22.60;;
76725;SDS011;65651;53.154;17.916;2023-11-21T09:54:13;69.40;;;20.80;;
76725;SDS011;65651;53.154;17.916;2023-11-21T09:56:43;66.70;;;21.30;;
76725;SDS011;65651;53.154;17.916;2023-11-21T09:59:12;79.90;;;23.40;;
76725;SDS011;65651;53.154;17.916;2023-11-21T10:01:42;83.40;;;20.80;;
76725;SDS011;65651;53.154;17.916;2023-11-21T10:04:13;65.90;;;20.80;;
76725;SDS011;65651;53.154;17.916;2023-11-21T10:06:41;64.60;;;20.20;;
76725;SDS011;65651;53.154;17.916;2023-11-21T10:09:09;67.50;;;21.70;;
76725;SDS011;65651;53.154;17.916;2023-11-21T10:11:39;80.10;;;19.70;;
76725;SDS011;65651;53.154;17.916;2023-11-21T10:14:08;61.50;;;18.20;;
76725;SDS011;65651;53.154;17.916;2023-11-21T10:16:40;67.10;;;20.30;;
76725;SDS011;65651;53.154;17.916;2023-11-21T10:19:09;71.50;;;21.50;;
76725;SDS011;65651;53.154;17.916;2023-11-21T10:21:38;69.50;;;20.50;;
76725;SDS011;65651;53.154;17.916;2023-11-21T10:24:06;78.50;;;21.10;;
76725;SDS011;65651;53.154;17.916;2023-11-21T10:26:34;85.00;;;22.40;;
76725;SDS011;65651;53.154;17.916;2023-11-21T10:29:02;63.20;;;20.80;;
76725;SDS011;65651;53.154;17.916;2023-11-21T10:31:30;62.80;;;21.20;;
76725;SDS011;65651;53.154;17.916;2023-11-21T10:36:58;80.10;;;21.40;;
76725;SDS011;65651;53.154;17.916;2023-11-21T10:39:38;71.00;;;19.90;;
76725;SDS011;65651;53.154;17.916;2023-11-21T10:42:08;71.30;;;21.00;;
76725;SDS011;65651;53.154;17.916;2023-11-21T10:44:37;77.60;;;22.60;;
76725;SDS011;65651;53.154;17.916;2023-11-21T10:47:04;76.00;;;20.80;;
76725;SDS011;65651;53.154;17.916;2023-11-21T10:49:35;77.80;;;21.40;;
76725;SDS011;65651;53.154;17.916;2023-11-21T10:52:06;73.80;;;20.70;;
76725;SDS011;65651;53.154;17.916;2023-11-21T10:54:33;71.00;;;21.60;;
76725;SDS011;65651;53.154;17.916;2023-11-21T10:57:02;69.20;;;21.10;;
76725;SDS011;65651;53.154;17.916;2023-11-21T10:59:31;70.50;;;20.50;;
76725;SDS011;65651;53.154;17.916;2023-11-21T11:01:59;54.30;;;19.70;;
76725;SDS011;65651;53.154;17.916;2023-11-21T11:04:30;84.10;;;20.60;;
76725;SDS011;65651;53.154;17.916;2023-11-21T11:06:59;82.40;;;21.20;;
76725;SDS011;65651;53.154;17.916;2023-11-21T11:09:30;75.30;;;22.90;;
76725;SDS011;65651;53.154;17.916;2023-11-21T11:12:02;77.50;;;21.00;;
76725;SDS011;65651;53.154;17.916;2023-11-21T11:14:34;71.90;;;20.50;;
76725;SDS011;65651;53.154;17.916;2023-11-21T11:17:01;69.50;;;20.00;;
76725;SDS011;65651;53.154;17.916;2023-11-21T11:19:33;74.40;;;20.20;;
76725;SDS011;65651;53.154;17.916;2023-11-21T11:28:01;50.10;;;16.60;;
76725;SDS011;65651;53.154;17.916;2023-11-21T11:33:56;61.60;;;17.00;;
76725;SDS011;65651;53.154;17.916;2023-11-21T11:42:13;55.60;;;17.40;;
76725;SDS011;65651;53.154;17.916;2023-11-21T11:47:22;55.20;;;17.10;;
76725;SDS011;65651;53.154;17.916;2023-11-21T11:55:10;64.70;;;18.70;;
76725;SDS011;65651;53.154;17.916;2023-11-21T11:57:40;71.80;;;19.30;;
76725;SDS011;65651;53.154;17.916;2023-11-21T12:03:00;65.90;;;19.00;;
76725;SDS011;65651;53.154;17.916;2023-11-21T12:05:33;68.20;;;18.20;;
76725;SDS011;65651;53.154;17.916;2023-11-21T12:08:06;67.00;;;18.90;;
76725;SDS011;65651;53.154;17.916;2023-11-21T12:10:36;72.20;;;20.10;;
76725;SDS011;65651;53.154;17.916;2023-11-21T12:13:07;76.50;;;19.70;;
76725;SDS011;65651;53.154;17.916;2023-11-21T12:15:37;51.60;;;18.40;;
76725;SDS011;65651;53.154;17.916;2023-11-21T12:18:07;67.90;;;19.00;;
76725;SDS011;65651;53.154;17.916;2023-11-21T12:20:34;73.00;;;20.10;;
76725;SDS011;65651;53.154;17.916;2023-11-21T12:23:09;71.20;;;21.10;;
76725;SDS011;65651;53.154;17.916;2023-11-21T12:25:38;58.40;;;20.00;;
76725;SDS011;65651;53.154;17.916;2023-11-21T12:28:06;67.70;;;18.00;;
76725;SDS011;65651;53.154;17.916;2023-11-21T12:30:34;73.70;;;21.40;;
76725;SDS011;65651;53.154;17.916;2023-11-21T12:33:04;72.30;;;19.10;;
76725;SDS011;65651;53.154;17.916;2023-11-21T12:35:34;80.50;;;20.80;;
76725;SDS011;65651;53.154;17.916;2023-11-21T12:38:02;65.00;;;18.30;;
76725;SDS011;65651;53.154;17.916;2023-11-21T12:40:31;71.60;;;20.20;;
76725;SDS011;65651;53.154;17.916;2023-11-21T12:42:59;54.70;;;15.20;;
76725;SDS011;65651;53.154;17.916;2023-11-21T12:45:31;55.20;;;16.70;;
76725;SDS011;65651;53.154;17.916;2023-11-21T12:48:01;60.20;;;18.80;;
76725;SDS011;65651;53.154;17.916;2023-11-21T12:50:34;58.20;;;17.40;;
76725;SDS011;65651;53.154;17.916;2023-11-21T12:55:39;76.60;;;24.60;;
76725;SDS011;65651;53.154;17.916;2023-11-21T12:58:08;70.60;;;20.80;;
76725;SDS011;65651;53.154;17.916;2023-11-21T13:00:38;81.00;;;32.20;;
76725;SDS011;65651;53.154;17.916;2023-11-21T13:03:09;106.70;;;40.80;;
76725;SDS011;65651;53.154;17.916;2023-11-21T13:05:39;70.30;;;19.70;;
76725;SDS011;65651;53.154;17.916;2023-11-21T13:08:14;73.80;;;18.90;;
76725;SDS011;65651;53.154;17.916;2023-11-21T13:10:46;67.00;;;21.60;;
76725;SDS011;65651;53.154;17.916;2023-11-21T13:13:16;62.50;;;20.40;;
76725;SDS011;65651;53.154;17.916;2023-11-21T13:15:47;47.20;;;13.70;;
76725;SDS011;65651;53.154;17.916;2023-11-21T13:18:15;67.30;;;18.60;;
76725;SDS011;65651;53.154;17.916;2023-11-21T13:20:43;65.60;;;18.80;;
76725;SDS011;65651;53.154;17.916;2023-11-21T13:23:11;70.70;;;19.70;;
76725;SDS011;65651;53.154;17.916;2023-11-21T13:25:38;70.50;;;22.50;;
76725;SDS011;65651;53.154;17.916;2023-11-21T13:28:08;51.80;;;18.20;;
76725;SDS011;65651;53.154;17.916;2023-11-21T13:30:39;55.40;;;17.70;;
76725;SDS011;65651;53.154;17.916;2023-11-21T13:33:07;61.60;;;17.20;;
76725;SDS011;65651;53.154;17.916;2023-11-21T13:35:37;51.10;;;17.50;;
76725;SDS011;65651;53.154;17.916;2023-11-21T13:38:12;54.40;;;19.60;;
76725;SDS011;65651;53.154;17.916;2023-11-21T13:40:50;45.20;;;13.80;;
76725;SDS011;65651;53.154;17.916;2023-11-21T13:43:22;83.70;;;32.60;;
76725;SDS011;65651;53.154;17.916;2023-11-21T13:45:53;57.00;;;15.10;;
76725;SDS011;65651;53.154;17.916;2023-11-21T13:48:39;49.30;;;15.00;;
76725;SDS011;65651;53.154;17.916;2023-11-21T13:51:09;46.70;;;15.80;;
76725;SDS011;65651;53.154;17.916;2023-11-21T13:53:44;50.10;;;14.20;;
76725;SDS011;65651;53.154;17.916;2023-11-21T13:56:15;55.70;;;17.00;;
76725;SDS011;65651;53.154;17.916;2023-11-21T13:58:55;72.00;;;27.00;;
76725;SDS011;65651;53.154;17.916;2023-11-21T14:01:23;53.10;;;16.80;;
76725;SDS011;65651;53.154;17.916;2023-11-21T14:04:00;56.60;;;18.20;;
76725;SDS011;65651;53.154;17.916;2023-11-21T14:06:39;47.20;;;15.80;;
76725;SDS011;65651;53.154;17.916;2023-11-21T14:09:16;53.40;;;15.50;;
76725;SDS011;65651;53.154;17.916;2023-11-21T14:11:53;53.10;;;16.30;;
76725;SDS011;65651;53.154;17.916;2023-11-21T14:14:23;49.50;;;16.20;;
76725;SDS011;65651;53.154;17.916;2023-11-21T14:16:52;57.80;;;16.10;;
76725;SDS011;65651;53.154;17.916;2023-11-21T14:19:34;58.20;;;23.40;;
76725;SDS011;65651;53.154;17.916;2023-11-21T14:22:05;41.50;;;14.80;;
76725;SDS011;65651;53.154;17.916;2023-11-21T14:24:36;49.10;;;13.80;;
76725;SDS011;65651;53.154;17.916;2023-11-21T14:27:04;44.10;;;13.90;;
76725;SDS011;65651;53.154;17.916;2023-11-21T14:29:32;54.50;;;15.20;;
76725;SDS011;65651;53.154;17.916;2023-11-21T14:32:06;43.60;;;10.80;;
76725;SDS011;65651;53.154;17.916;2023-11-21T14:34:34;47.40;;;14.90;;
76725;SDS011;65651;53.154;17.916;2023-11-21T14:37:02;47.10;;;14.70;;
76725;SDS011;65651;53.154;17.916;2023-11-21T14:39:32;47.70;;;13.40;;
76725;SDS011;65651;53.154;17.916;2023-11-21T14:42:05;56.50;;;16.00;;
76725;SDS011;65651;53.154;17.916;2023-11-21T14:44:34;52.40;;;17.00;;